Time;durP1;ratioP1;P1;durP2;ratioP2;P2;SDS_P1;SDS_P2;PMS_P1;PMS_P2;Temp;Humidity;BMP_temperature;BMP_pressure;BME280_temperature;BME280_humidity;BME280_pressure;Samples;Min_cycle;Max_cycle;Signal;HPM_P1;HPM_P2
2023/02/28 00:01:37;;;;;;;7.97;3.22;;;5.00;99.90;;;;;;5115091;28;20129;-66
2023/02/28 00:04:03;;;;;;;6.65;3.17;;;5.10;99.90;;;;;;5115376;28;20122;-66
2023/02/28 00:06:28;;;;;;;6.18;3.40;;;5.00;99.90;;;;;;5115155;28;20035;-66
2023/02/28 00:08:54;;;;;;;8.65;3.25;;;5.10;99.90;;;;;;5114865;28;20039;-66
2023/02/28 00:11:21;;;;;;;6.18;3.33;;;5.20;99.90;;;;;;5115200;28;20080;-66
2023/02/28 00:13:47;;;;;;;6.15;3.33;;;5.20;99.90;;;;;;5114499;28;20495;-66
2023/02/28 00:16:16;;;;;;;6.35;3.05;;;5.20;99.90;;;;;;5114911;28;20046;-66
2023/02/28 00:18:42;;;;;;;6.70;3.15;;;5.10;99.90;;;;;;5115094;28;20043;-66
2023/02/28 00:21:08;;;;;;;12.27;3.90;;;5.10;99.90;;;;;;5114991;28;20402;-66
2023/02/28 00:23:34;;;;;;;8.70;3.42;;;5.10;99.90;;;;;;5114852;28;20118;-66
2023/02/28 00:26:00;;;;;;;5.53;3.13;;;5.10;99.90;;;;;;5114991;28;20055;-66
2023/02/28 00:28:26;;;;;;;8.57;3.45;;;5.00;99.90;;;;;;5114604;28;20050;-66
2023/02/28 00:30:51;;;;;;;6.57;2.92;;;5.10;99.90;;;;;;5113420;28;20035;-66
2023/02/28 00:33:17;;;;;;;5.55;3.05;;;5.00;99.90;;;;;;5114639;28;20160;-66
2023/02/28 00:35:46;;;;;;;9.75;4.30;;;4.90;99.90;;;;;;5114928;28;20036;-66
2023/02/28 00:38:11;;;;;;;8.98;3.45;;;4.90;99.90;;;;;;5114550;28;20499;-66
2023/02/28 00:40:37;;;;;;;8.10;3.95;;;4.90;99.90;;;;;;5114346;28;20043;-66
2023/02/28 00:43:03;;;;;;;7.90;4.32;;;4.90;99.90;;;;;;5114194;28;20112;-66
2023/02/28 00:45:29;;;;;;;13.10;4.00;;;5.10;99.90;;;;;;5114746;28;20047;-66
2023/02/28 00:47:55;;;;;;;9.40;3.42;;;5.10;99.90;;;;;;5114655;28;20417;-66
2023/02/28 00:50:20;;;;;;;11.75;4.32;;;5.00;99.90;;;;;;5114205;28;20044;-66
2023/02/28 00:52:46;;;;;;;8.60;4.25;;;5.00;99.90;;;;;;5114186;28;20044;-66
2023/02/28 00:55:12;;;;;;;8.70;4.30;;;5.10;99.90;;;;;;5114422;28;20118;-66
2023/02/28 00:57:38;;;;;;;8.77;4.47;;;5.00;99.90;;;;;;5114376;28;20040;-66
2023/02/28 01:00:04;;;;;;;9.40;4.22;;;4.90;99.90;;;;;;5114368;28;20429;-66
2023/02/28 01:02:30;;;;;;;8.70;3.58;;;5.00;99.90;;;;;;5109793;28;20399;-66
2023/02/28 01:04:56;;;;;;;9.25;3.97;;;5.00;99.90;;;;;;5114104;28;20043;-66
2023/02/28 01:07:25;;;;;;;8.18;3.47;;;5.10;99.90;;;;;;5112913;28;20047;-65
2023/02/28 01:09:50;;;;;;;8.57;4.55;;;4.90;99.90;;;;;;5114120;28;20089;-66
2023/02/28 01:12:16;;;;;;;9.25;5.65;;;5.10;99.90;;;;;;5112961;28;20043;-66
2023/02/28 01:14:42;;;;;;;12.82;4.55;;;5.00;99.90;;;;;;5114017;28;20073;-66
2023/02/28 01:17:08;;;;;;;8.13;4.03;;;4.90;99.90;;;;;;5114248;28;20097;-67
2023/02/28 01:19:33;;;;;;;8.00;3.97;;;5.00;99.90;;;;;;5113884;28;20069;-66
2023/02/28 01:22:05;;;;;;;9.82;4.10;;;5.00;99.90;;;;;;5113825;28;20054;-66
2023/02/28 01:24:32;;;;;;;8.38;3.58;;;4.80;99.90;;;;;;5113576;28;20039;-65
2023/02/28 01:26:57;;;;;;;18.67;5.90;;;4.90;99.90;;;;;;5113929;28;20052;-64
2023/02/28 01:29:23;;;;;;;13.50;4.88;;;5.00;99.90;;;;;;5113423;28;20044;-65
2023/02/28 01:31:48;;;;;;;7.15;4.28;;;5.00;99.90;;;;;;5113641;28;20043;-65
2023/02/28 01:34:14;;;;;;;9.65;3.70;;;5.00;99.90;;;;;;5113478;28;20040;-65
2023/02/28 01:36:39;;;;;;;12.70;3.72;;;5.00;99.90;;;;;;5113661;28;20042;-65
2023/02/28 01:39:05;;;;;;;6.78;3.35;;;5.10;99.90;;;;;;5113450;28;20094;-65
2023/02/28 01:41:33;;;;;;;8.35;3.78;;;4.90;99.90;;;;;;5113416;28;20409;-65
2023/02/28 01:43:58;;;;;;;7.00;3.97;;;4.90;99.90;;;;;;5112147;28;20035;-65
2023/02/28 01:46:24;;;;;;;6.20;4.20;;;5.20;99.90;;;;;;5113518;28;20483;-65
2023/02/28 01:49:09;;;;;;;8.18;3.90;;;5.10;99.90;;;;;;5113323;28;20088;-65
2023/02/28 01:51:50;;;;;;;10.95;3.78;;;5.00;99.90;;;;;;5113258;28;20095;-64
2023/02/28 01:54:21;;;;;;;6.75;3.60;;;5.10;99.90;;;;;;5111957;28;20494;-65
2023/02/28 01:56:53;;;;;;;10.05;3.95;;;4.90;99.90;;;;;;5113401;28;20091;-65
2023/02/28 01:59:46;;;;;;;9.65;4.88;;;5.10;99.90;;;;;;5113206;28;20046;-66
2023/02/28 02:02:13;;;;;;;10.52;4.88;;;5.10;99.90;;;;;;5104774;28;20431;-65
2023/02/28 02:05:01;;;;;;;7.53;4.25;;;5.10;99.90;;;;;;5112992;28;20050;-65
2023/02/28 02:07:29;;;;;;;9.98;4.43;;;5.10;99.90;;;;;;5112967;28;20050;-65
2023/02/28 02:10:15;;;;;;;7.00;4.10;;;4.90;99.90;;;;;;5112981;28;20099;-65
2023/02/28 02:13:18;;;;;;;16.63;5.05;;;5.10;99.90;;;;;;5112730;28;20108;-66
2023/02/28 02:15:52;;;;;;;12.80;5.77;;;4.90;99.90;;;;;;5113011;28;20043;-65
2023/02/28 02:18:40;;;;;;;5.57;4.80;;;5.10;99.90;;;;;;5112583;28;20490;-65
2023/02/28 02:21:48;;;;;;;11.40;5.68;;;5.10;99.90;;;;;;5111940;28;20086;-65
2023/02/28 02:24:48;;;;;;;10.45;5.72;;;5.10;99.90;;;;;;5112287;28;20047;-65
2023/02/28 02:27:36;;;;;;;7.35;4.65;;;4.90;99.90;;;;;;5112506;28;20039;-65
2023/02/28 02:30:43;;;;;;;8.23;4.93;;;4.70;99.90;;;;;;5080401;28;20096;-65
2023/02/28 02:33:44;;;;;;;9.80;5.50;;;4.90;99.90;;;;;;5112544;28;20501;-66
2023/02/28 02:36:33;;;;;;;8.48;5.45;;;4.80;99.90;;;;;;5111964;28;20050;-66
2023/02/28 02:39:10;;;;;;;7.47;5.60;;;4.80;99.90;;;;;;5094327;28;20046;-65
2023/02/28 02:41:44;;;;;;;8.98;5.53;;;4.80;99.90;;;;;;5112428;28;20043;-66
2023/02/28 02:44:21;;;;;;;10.35;5.05;;;4.90;99.90;;;;;;5112401;28;20530;-66
2023/02/28 02:46:48;;;;;;;10.18;5.53;;;4.50;99.90;;;;;;5112659;28;20040;-65
2023/02/28 02:49:23;;;;;;;11.13;5.47;;;4.80;99.90;;;;;;5112282;28;20046;-65
2023/02/28 02:51:51;;;;;;;8.65;5.10;;;4.80;99.90;;;;;;5112565;28;20032;-64
2023/02/28 02:54:28;;;;;;;8.38;5.47;;;4.50;99.90;;;;;;5111994;28;20031;-65
2023/02/28 02:56:57;;;;;;;9.57;4.93;;;4.80;99.90;;;;;;5112473;28;20513;-65
2023/02/28 02:59:24;;;;;;;10.77;5.63;;;4.90;99.90;;;;;;5111986;28;20054;-65
2023/02/28 03:01:56;;;;;;;11.30;6.03;;;4.70;99.90;;;;;;5112266;28;20042;-65
2023/02/28 03:04:24;;;;;;;9.55;5.93;;;4.60;99.90;;;;;;5112141;28;20044;-66
2023/02/28 03:06:54;;;;;;;11.23;6.78;;;4.80;99.90;;;;;;5112189;28;20031;-65
2023/02/28 03:09:21;;;;;;;16.27;8.05;;;4.70;99.90;;;;;;5112030;28;20040;-65
2023/02/28 03:11:48;;;;;;;13.65;6.70;;;4.80;99.90;;;;;;5094290;28;20096;-64
2023/02/28 03:14:51;;;;;;;10.15;6.35;;;4.90;99.90;;;;;;5112000;28;20128;-66
2023/02/28 03:17:34;;;;;;;13.07;5.70;;;4.60;99.90;;;;;;5112209;28;20079;-65
2023/02/28 03:20:27;;;;;;;10.60;5.78;;;4.60;99.90;;;;;;5112364;28;20039;-66
2023/02/28 03:23:10;;;;;;;11.17;6.03;;;4.80;99.90;;;;;;5112138;28;20036;-65
2023/02/28 03:25:51;;;;;;;14.10;6.68;;;4.90;99.90;;;;;;5112106;28;20047;-66
2023/02/28 03:28:36;;;;;;;10.23;6.75;;;4.90;99.90;;;;;;5112132;28;20050;-65
2023/02/28 03:31:24;;;;;;;11.20;6.90;;;4.80;99.90;;;;;;5098067;22;20064;-69
2023/02/28 03:34:06;;;;;;;13.77;8.23;;;4.90;99.90;;;;;;5073316;28;20119;-69
2023/02/28 03:36:43;;;;;;;9.95;5.93;;;4.90;99.90;;;;;;5075525;28;20384;-69
2023/02/28 03:39:14;;;;;;;9.60;6.00;;;4.90;99.90;;;;;;5075041;28;20558;-69
2023/02/28 03:41:47;;;;;;;10.00;6.75;;;4.80;99.90;;;;;;5094272;28;20044;-69
2023/02/28 03:44:27;;;;;;;9.35;6.78;;;4.80;99.90;;;;;;5094380;28;20403;-69
2023/02/28 03:47:00;;;;;;;11.05;7.28;;;4.60;99.90;;;;;;5095430;28;20729;-69
2023/02/28 03:49:35;;;;;;;12.53;8.03;;;4.60;99.90;;;;;;5095338;28;20040;-69
2023/02/28 03:52:03;;;;;;;12.27;7.20;;;4.60;99.90;;;;;;5095390;28;20065;-69
2023/02/28 03:54:34;;;;;;;13.05;6.10;;;4.70;99.90;;;;;;5094939;28;20039;-69
2023/02/28 03:57:10;;;;;;;9.48;6.30;;;4.70;99.90;;;;;;5095200;28;20036;-69
2023/02/28 03:59:41;;;;;;;9.35;6.10;;;4.40;99.90;;;;;;5095201;28;20043;-70
2023/02/28 04:02:07;;;;;;;11.30;6.07;;;4.50;99.90;;;;;;5095199;28;20035;-69
2023/02/28 04:04:34;;;;;;;14.68;5.93;;;4.20;99.90;;;;;;5094832;28;20411;-69
2023/02/28 04:07:08;;;;;;;10.20;5.60;;;4.50;99.90;;;;;;5094984;28;20086;-69
2023/02/28 04:09:34;;;;;;;11.68;6.00;;;4.60;99.90;;;;;;5094865;28;20040;-69
2023/02/28 04:12:00;;;;;;;9.07;5.88;;;4.50;99.90;;;;;;5094976;28;20043;-69
2023/02/28 04:14:26;;;;;;;9.80;5.75;;;4.50;99.90;;;;;;5094692;28;20039;-69
2023/02/28 04:16:52;;;;;;;10.52;6.13;;;4.60;99.90;;;;;;5094874;28;20672;-69
2023/02/28 04:19:18;;;;;;;9.15;5.55;;;4.30;99.90;;;;;;5094846;28;20044;-69
2023/02/28 04:21:46;;;;;;;7.70;5.50;;;4.30;99.90;;;;;;5094492;28;20036;-69
2023/02/28 04:24:15;;;;;;;13.95;6.60;;;4.30;99.90;;;;;;5094668;28;20039;-69
2023/02/28 04:26:44;;;;;;;11.18;6.10;;;4.50;99.90;;;;;;5094462;28;20499;-69
2023/02/28 04:29:10;;;;;;;8.00;5.50;;;4.30;99.90;;;;;;5094509;28;20093;-69
2023/02/28 04:31:36;;;;;;;9.55;5.82;;;4.40;99.90;;;;;;5094364;28;20054;-69
2023/02/28 04:34:02;;;;;;;8.57;5.85;;;4.50;99.90;;;;;;5094077;28;20032;-69
2023/02/28 04:36:28;;;;;;;10.82;5.95;;;4.20;99.90;;;;;;5094655;28;20123;-69
2023/02/28 04:38:54;;;;;;;9.45;6.70;;;4.30;99.90;;;;;;5094608;28;20076;-70
2023/02/28 04:41:20;;;;;;;9.45;6.07;;;4.30;99.90;;;;;;5094401;28;20042;-69
2023/02/28 04:43:46;;;;;;;10.10;5.63;;;4.60;99.90;;;;;;5093780;28;20063;-69
2023/02/28 04:46:11;;;;;;;9.52;6.13;;;4.20;99.90;;;;;;5094303;28;20040;-69
2023/02/28 04:48:38;;;;;;;7.97;5.40;;;4.30;99.90;;;;;;5094055;28;20044;-69
2023/02/28 04:51:06;;;;;;;10.70;6.03;;;4.40;99.90;;;;;;5094317;28;20065;-69
2023/02/28 04:53:32;;;;;;;9.30;6.20;;;4.40;99.90;;;;;;5093883;28;20040;-69
2023/02/28 04:55:58;;;;;;;14.70;6.35;;;4.50;99.90;;;;;;5094211;28;20032;-69
2023/02/28 04:58:24;;;;;;;13.13;6.80;;;4.40;99.90;;;;;;5094043;28;20043;-69
2023/02/28 05:00:51;;;;;;;9.38;6.20;;;4.20;99.90;;;;;;5094021;28;20036;-69
2023/02/28 05:03:16;;;;;;;8.48;5.45;;;4.30;99.90;;;;;;5093551;28;20520;-69
2023/02/28 05:05:42;;;;;;;10.13;6.82;;;4.20;99.90;;;;;;5093835;28;20067;-69
2023/02/28 05:08:09;;;;;;;8.77;6.35;;;4.50;99.90;;;;;;5093952;28;20093;-69
2023/02/28 05:10:35;;;;;;;10.50;7.57;;;4.10;99.90;;;;;;5092620;28;20097;-69
2023/02/28 05:13:01;;;;;;;10.98;6.28;;;4.50;99.90;;;;;;5093689;28;20036;-70
2023/02/28 05:15:26;;;;;;;12.40;7.57;;;4.50;99.90;;;;;;5093771;28;20032;-69
2023/02/28 05:17:52;;;;;;;12.27;7.05;;;4.40;99.90;;;;;;5093513;28;20031;-69
2023/02/28 05:20:17;;;;;;;13.73;7.43;;;4.00;99.90;;;;;;5093722;28;20048;-70
2023/02/28 05:22:43;;;;;;;11.95;7.70;;;4.40;99.90;;;;;;5092100;28;20072;-70
2023/02/28 05:25:16;;;;;;;12.63;7.65;;;4.40;99.90;;;;;;5093420;28;20047;-70
2023/02/28 05:27:41;;;;;;;11.93;7.88;;;4.10;99.90;;;;;;5093474;28;20035;-69
2023/02/28 05:30:10;;;;;;;13.38;8.20;;;4.00;99.90;;;;;;5093219;28;20032;-69
2023/02/28 05:32:42;;;;;;;14.95;9.45;;;4.40;99.90;;;;;;5093101;28;20048;-69
2023/02/28 05:35:09;;;;;;;13.23;7.95;;;4.00;99.90;;;;;;5093378;28;20047;-69
2023/02/28 05:37:34;;;;;;;12.07;7.97;;;4.10;99.90;;;;;;5093436;28;20040;-69
2023/02/28 05:40:00;;;;;;;13.30;8.10;;;4.20;99.90;;;;;;5093177;28;20038;-70
2023/02/28 05:42:25;;;;;;;14.18;7.78;;;4.00;99.90;;;;;;5092987;28;20162;-69
2023/02/28 05:44:51;;;;;;;14.73;8.52;;;4.30;99.90;;;;;;5092839;28;20043;-69
2023/02/28 05:47:17;;;;;;;10.77;7.90;;;4.40;99.90;;;;;;5093037;28;20047;-69
2023/02/28 05:49:42;;;;;;;12.93;7.60;;;4.00;99.90;;;;;;5092790;28;20048;-69
2023/02/28 05:52:08;;;;;;;14.60;8.15;;;4.40;99.90;;;;;;5092948;28;20093;-69
2023/02/28 05:54:33;;;;;;;13.00;7.93;;;4.30;99.90;;;;;;5092261;28;20032;-69
2023/02/28 05:56:59;;;;;;;13.57;8.75;;;4.20;99.90;;;;;;5092600;28;20107;-69
2023/02/28 05:59:25;;;;;;;13.18;8.60;;;4.40;99.90;;;;;;5092728;28;20548;-69
2023/02/28 06:01:52;;;;;;;13.55;9.05;;;4.00;99.90;;;;;;5074518;28;20104;-70
2023/02/28 06:04:20;;;;;;;12.65;9.32;;;4.00;99.90;;;;;;5092425;28;20040;-70
2023/02/28 06:06:46;;;;;;;12.90;8.88;;;4.10;99.90;;;;;;5092772;28;20047;-70
2023/02/28 06:09:12;;;;;;;22.60;10.15;;;4.00;99.90;;;;;;5092599;28;20457;-70
2023/02/28 06:11:38;;;;;;;13.55;9.35;;;4.10;99.90;;;;;;5092507;28;20036;-70
2023/02/28 06:14:04;;;;;;;14.63;8.95;;;4.00;99.90;;;;;;5092282;28;20123;-70
2023/02/28 06:16:31;;;;;;;17.60;10.35;;;4.30;99.90;;;;;;5092731;28;20039;-70
2023/02/28 06:19:01;;;;;;;13.95;8.73;;;4.30;99.90;;;;;;5092638;28;20044;-70
2023/02/28 06:21:28;;;;;;;15.60;9.82;;;4.30;99.90;;;;;;5092453;28;20081;-70
2023/02/28 06:23:54;;;;;;;11.80;8.43;;;4.30;99.90;;;;;;5092211;28;20575;-70
2023/02/28 06:26:20;;;;;;;17.13;10.02;;;3.80;99.90;;;;;;5092264;28;20150;-70
2023/02/28 06:28:46;;;;;;;14.98;9.75;;;4.20;99.90;;;;;;5092155;28;20076;-70
2023/02/28 06:31:13;;;;;;;14.30;9.77;;;4.10;99.90;;;;;;5092207;28;20039;-70
2023/02/28 06:33:40;;;;;;;15.60;10.13;;;3.70;99.90;;;;;;5090641;28;20042;-70
2023/02/28 06:36:07;;;;;;;15.88;9.82;;;3.90;99.90;;;;;;5091009;28;20032;-70
2023/02/28 06:38:32;;;;;;;17.25;10.75;;;3.80;99.90;;;;;;5092004;28;20044;-70
2023/02/28 06:41:00;;;;;;;19.05;10.63;;;3.90;99.90;;;;;;5090660;28;20055;-70
2023/02/28 06:43:29;;;;;;;16.85;10.55;;;4.00;99.90;;;;;;5090393;28;20566;-70
2023/02/28 06:45:56;;;;;;;17.20;10.18;;;3.90;99.90;;;;;;5092031;28;20669;-70
2023/02/28 06:48:23;;;;;;;14.48;9.80;;;3.90;99.90;;;;;;5091814;28;20429;-70
2023/02/28 06:50:48;;;;;;;18.75;10.73;;;3.60;99.90;;;;;;5090642;28;20509;-69
2023/02/28 06:53:14;;;;;;;17.55;10.43;;;3.80;99.90;;;;;;5091648;28;20119;-69
2023/02/28 06:55:40;;;;;;;21.23;11.27;;;3.60;99.90;;;;;;5091908;28;20044;-69
2023/02/28 06:58:14;;;;;;;17.98;10.38;;;3.80;99.90;;;;;;5090522;28;20040;-69
2023/02/28 07:00:44;;;;;;;16.42;10.50;;;3.90;99.90;;;;;;5091882;28;20507;-69
2023/02/28 07:03:10;;;;;;;17.92;10.98;;;3.60;99.90;;;;;;5091510;28;20051;-70
2023/02/28 07:05:36;;;;;;;21.27;10.52;;;4.00;99.90;;;;;;5091104;28;20036;-70
2023/02/28 07:08:04;;;;;;;16.67;11.20;;;3.60;99.90;;;;;;5091361;28;20040;-71
2023/02/28 07:10:30;;;;;;;19.77;11.43;;;3.50;99.90;;;;;;5090576;28;20097;-70
2023/02/28 07:12:55;;;;;;;17.40;10.13;;;3.50;99.90;;;;;;5091744;28;20115;-70
2023/02/28 07:15:21;;;;;;;18.77;10.63;;;3.80;99.90;;;;;;5091714;28;20432;-70
2023/02/28 07:17:47;;;;;;;18.10;11.65;;;3.60;99.90;;;;;;5091736;28;20602;-70
2023/02/28 07:20:12;;;;;;;17.50;11.10;;;3.50;99.90;;;;;;5091682;28;20063;-70
2023/02/28 07:22:38;;;;;;;21.38;10.98;;;3.90;99.90;;;;;;5091506;28;20678;-70
2023/02/28 07:25:05;;;;;;;22.25;11.05;;;3.60;99.90;;;;;;5091370;28;20028;-70
2023/02/28 07:27:30;;;;;;;20.65;11.27;;;3.50;99.90;;;;;;5091701;28;20044;-70
2023/02/28 07:29:56;;;;;;;19.25;11.48;;;4.00;99.90;;;;;;5091226;28;20036;-70
2023/02/28 07:32:22;;;;;;;18.25;11.18;;;3.60;99.90;;;;;;5091525;28;20040;-70
2023/02/28 07:34:48;;;;;;;18.60;12.25;;;3.50;99.90;;;;;;5090164;28;20038;-70
2023/02/28 07:37:14;;;;;;;20.15;11.63;;;3.70;99.90;;;;;;5091514;28;20040;-70
2023/02/28 07:39:42;;;;;;;20.20;11.90;;;3.70;99.90;;;;;;5090736;28;20097;-70
2023/02/28 07:42:10;;;;;;;18.60;12.18;;;3.80;99.90;;;;;;5091667;28;20051;-73
2023/02/28 07:44:39;;;;;;;19.15;11.38;;;3.80;99.90;;;;;;5091389;28;20048;-70
2023/02/28 07:47:08;;;;;;;20.90;12.70;;;3.70;99.90;;;;;;5091587;28;20411;-70
2023/02/28 07:49:37;;;;;;;22.52;12.88;;;3.80;99.90;;;;;;5091295;28;20044;-70
2023/02/28 07:52:04;;;;;;;20.92;11.65;;;3.70;99.90;;;;;;5091232;28;20036;-70
2023/02/28 07:54:30;;;;;;;19.23;11.55;;;4.00;99.90;;;;;;5091336;28;20063;-70
2023/02/28 07:56:56;;;;;;;18.80;11.18;;;3.90;99.90;;;;;;5091492;28;20067;-70
2023/02/28 07:59:21;;;;;;;22.30;11.90;;;4.20;99.90;;;;;;5091470;28;20450;-70
2023/02/28 08:01:50;;;;;;;17.85;12.25;;;3.90;99.90;;;;;;5091304;28;20044;-70
2023/02/28 08:04:18;;;;;;;18.10;11.32;;;4.00;99.90;;;;;;5091100;28;20083;-70
2023/02/28 08:06:44;;;;;;;20.73;12.85;;;4.20;99.90;;;;;;5091167;28;20415;-70
2023/02/28 08:09:09;;;;;;;24.02;13.43;;;4.20;99.90;;;;;;5091366;28;20036;-70
2023/02/28 08:11:36;;;;;;;18.90;12.98;;;4.70;99.90;;;;;;5090996;28;20429;-71
2023/02/28 08:14:02;;;;;;;22.00;12.57;;;4.90;99.90;;;;;;5091087;28;20047;-70
2023/02/28 08:16:27;;;;;;;23.30;13.10;;;4.90;99.90;;;;;;5091279;28;20032;-70
2023/02/28 08:18:53;;;;;;;20.10;12.20;;;4.80;99.90;;;;;;5092410;28;20100;-70
2023/02/28 08:21:20;;;;;;;20.60;12.13;;;4.70;99.90;;;;;;5094623;28;20065;-70
2023/02/28 08:23:50;;;;;;;19.40;11.30;;;4.70;99.90;;;;;;5094708;28;20079;-70
2023/02/28 08:26:17;;;;;;;19.85;11.10;;;4.80;99.90;;;;;;5094782;28;20043;-70
2023/02/28 08:28:42;;;;;;;18.48;10.63;;;5.00;99.90;;;;;;5094618;28;20036;-70
2023/02/28 08:31:10;;;;;;;22.00;12.68;;;4.80;99.90;;;;;;5094497;28;20059;-70
2023/02/28 08:33:36;;;;;;;24.65;12.68;;;5.00;99.90;;;;;;5093101;28;20036;-70
2023/02/28 08:36:02;;;;;;;24.67;13.60;;;5.10;99.90;;;;;;5094098;28;20606;-70
2023/02/28 08:38:27;;;;;;;22.55;13.13;;;5.50;99.90;;;;;;5094616;28;20076;-70
2023/02/28 08:41:06;;;;;;;21.33;13.27;;;5.70;99.90;;;;;;5093662;28;20119;-70
2023/02/28 08:43:33;;;;;;;20.65;12.07;;;5.70;99.90;;;;;;5094150;28;20043;-70
2023/02/28 08:45:59;;;;;;;18.90;12.32;;;5.60;99.90;;;;;;5093903;28;20044;-69
2023/02/28 08:48:26;;;;;;;22.33;13.32;;;5.70;99.90;;;;;;5094025;28;20044;-70
2023/02/28 08:51:21;;;;;;;29.85;14.00;;;5.90;99.90;;;;;;5094114;28;20467;-70
2023/02/28 08:53:49;;;;;;;19.48;12.88;;;5.60;99.90;;;;;;5094000;28;20067;-71
2023/02/28 08:56:16;;;;;;;22.73;14.40;;;5.90;99.90;;;;;;5094113;28;20499;-70
2023/02/28 08:58:42;;;;;;;26.25;14.02;;;6.20;99.90;;;;;;5092881;28;20480;-70
2023/02/28 09:01:14;;;;;;;19.88;13.32;;;6.00;99.90;;;;;;5093712;28;20068;-71
2023/02/28 09:03:41;;;;;;;19.83;13.43;;;6.30;99.90;;;;;;5093910;28;20514;-70
2023/02/28 09:06:08;;;;;;;21.58;12.48;;;6.40;99.90;;;;;;5092579;28;20127;-70
2023/02/28 09:08:34;;;;;;;21.08;12.57;;;6.30;99.90;;;;;;5093919;28;20071;-70
2023/02/28 09:10:59;;;;;;;21.67;12.80;;;6.50;99.90;;;;;;5093342;28;20452;-70
2023/02/28 09:13:26;;;;;;;23.52;14.00;;;6.50;99.90;;;;;;5093244;28;20093;-70
2023/02/28 09:15:53;;;;;;;19.52;13.20;;;6.20;99.90;;;;;;5093994;28;20112;-69
2023/02/28 09:18:19;;;;;;;21.48;12.70;;;6.40;99.90;;;;;;5093710;28;20043;-70
2023/02/28 09:20:45;;;;;;;17.55;12.75;;;6.40;99.90;;;;;;5093426;28;20112;-70
2023/02/28 09:23:11;;;;;;;20.90;13.57;;;6.50;99.90;;;;;;5092044;28;20055;-70
2023/02/28 09:25:44;;;;;;;18.00;12.38;;;6.30;99.90;;;;;;5092208;28;20032;-70
2023/02/28 09:28:09;;;;;;;22.67;13.38;;;6.30;99.90;;;;;;5093690;28;20047;-70
2023/02/28 09:30:35;;;;;;;20.40;13.15;;;6.30;99.90;;;;;;5092131;28;20036;-70
2023/02/28 09:33:00;;;;;;;21.42;13.40;;;6.20;99.90;;;;;;5092797;28;20032;-70
2023/02/28 09:35:26;;;;;;;23.08;13.13;;;6.20;99.90;;;;;;5092916;28;20040;-70
2023/02/28 09:37:52;;;;;;;20.65;13.77;;;5.90;99.90;;;;;;5093241;28;20040;-70
2023/02/28 09:40:21;;;;;;;20.38;12.68;;;6.00;99.90;;;;;;5091044;28;20048;-70
2023/02/28 09:42:49;;;;;;;19.30;13.65;;;6.20;99.90;;;;;;5092064;28;20051;-70
2023/02/28 09:45:28;;;;;;;19.95;12.75;;;6.10;99.90;;;;;;5093123;28;20032;-69
2023/02/28 09:47:58;;;;;;;20.83;13.25;;;6.10;99.90;;;;;;5086564;28;20040;-69
2023/02/28 09:50:26;;;;;;;22.88;12.88;;;6.00;99.90;;;;;;5093055;28;20071;-69
2023/02/28 09:52:54;;;;;;;21.33;12.63;;;5.90;99.90;;;;;;5092764;28;20472;-69
2023/02/28 09:55:30;;;;;;;20.23;12.27;;;5.90;99.90;;;;;;5093034;28;20032;-69
2023/02/28 09:57:59;;;;;;;21.25;13.57;;;5.90;99.90;;;;;;5091819;28;20040;-69
2023/02/28 10:00:33;;;;;;;21.60;13.95;;;6.00;99.90;;;;;;5092635;28;20473;-70
2023/02/28 10:03:16;;;;;;;;;;;6.00;99.90;;;;;;5093056;28;20044;-70
2023/02/28 10:05:53;;;;;;;19.35;12.05;;;5.90;99.90;;;;;;5093021;28;19926;-69
2023/02/28 10:08:44;;;;;;;20.27;11.60;;;5.90;99.90;;;;;;5092816;28;20400;-69
2023/02/28 10:11:14;;;;;;;19.85;11.80;;;5.90;99.90;;;;;;5091545;28;20040;-70
2023/02/28 10:14:05;;;;;;;20.92;11.55;;;5.80;99.90;;;;;;5092360;28;20111;-69
2023/02/28 10:16:34;;;;;;;21.25;12.15;;;5.80;99.90;;;;;;5092798;28;20075;-69
2023/02/28 10:19:38;;;;;;;19.50;12.23;;;5.80;99.90;;;;;;5092576;28;20054;-69
2023/02/28 10:22:40;;;;;;;22.20;12.70;;;6.00;99.90;;;;;;5092370;28;20126;-69
2023/02/28 10:25:21;;;;;;;20.15;11.02;;;5.90;99.90;;;;;;5074226;28;20059;-70
2023/02/28 10:27:46;;;;;;;16.85;10.18;;;5.80;99.90;;;;;;5092112;28;20097;-69
2023/02/28 10:30:15;;;;;;;14.63;9.23;;;5.90;99.90;;;;;;5092054;28;20503;-69
2023/02/28 10:32:50;;;;;;;14.70;10.10;;;5.90;99.90;;;;;;5092317;28;20048;-69
2023/02/28 10:35:17;;;;;;;13.95;8.23;;;6.00;99.90;;;;;;5091104;28;20039;-69
2023/02/28 10:37:58;;;;;;;14.52;8.90;;;6.10;99.90;;;;;;5092237;28;20491;-70
2023/02/28 10:40:23;;;;;;;16.10;8.02;;;6.00;99.90;;;;;;5092285;28;20051;-69
2023/02/28 10:42:56;;;;;;;13.82;8.68;;;6.00;99.90;;;;;;5091587;28;20107;-69
2023/02/28 10:45:23;;;;;;;14.23;7.80;;;6.30;99.90;;;;;;5091904;28;20055;-70
2023/02/28 10:48:11;;;;;;;10.65;5.70;;;6.30;99.90;;;;;;5092083;28;20040;-69
2023/02/28 10:50:51;;;;;;;6.68;4.00;;;6.30;99.90;;;;;;5084239;28;20449;-70
2023/02/28 10:53:26;;;;;;;4.95;3.60;;;6.40;99.90;;;;;;5091610;28;20040;-70
2023/02/28 10:56:06;;;;;;;8.63;6.38;;;6.50;99.90;;;;;;5092201;28;20388;-70
2023/02/28 10:58:55;;;;;;;8.60;5.97;;;6.40;99.90;;;;;;5090654;28;20040;-69
2023/02/28 11:01:21;;;;;;;6.55;5.38;;;6.40;99.90;;;;;;5091811;28;20044;-70
2023/02/28 11:03:48;;;;;;;11.30;6.20;;;6.40;99.90;;;;;;5091493;28;20039;-70
2023/02/28 11:06:21;;;;;;;7.93;5.32;;;6.40;99.90;;;;;;5091959;28;20050;-70
2023/02/28 11:08:51;;;;;;;8.93;5.70;;;6.50;99.90;;;;;;5090591;28;20040;-70
2023/02/28 11:11:18;;;;;;;6.70;4.63;;;6.50;99.90;;;;;;5091796;28;20048;-70
2023/02/28 11:13:46;;;;;;;11.73;6.50;;;6.50;99.90;;;;;;5091485;28;20413;-70
2023/02/28 11:16:14;;;;;;;9.48;5.85;;;6.50;99.90;;;;;;5091516;28;20064;-70
2023/02/28 11:18:54;;;;;;;10.90;6.50;;;6.60;99.90;;;;;;5091596;28;20036;-70
2023/02/28 11:21:40;;;;;;;11.35;6.68;;;6.60;99.90;;;;;;5091596;28;20525;-70
2023/02/28 11:24:28;;;;;;;9.23;6.18;;;6.60;99.90;;;;;;5090241;28;20136;-70
2023/02/28 11:26:54;;;;;;;8.23;6.05;;;6.70;99.90;;;;;;5091630;28;20032;-70
2023/02/28 11:29:34;;;;;;;10.85;7.63;;;6.80;99.90;;;;;;5091668;28;20433;-70
2023/02/28 11:32:15;;;;;;;11.38;6.43;;;6.90;99.90;;;;;;5091601;28;20081;-69
2023/02/28 11:34:42;;;;;;;10.23;6.13;;;6.90;99.90;;;;;;5091394;28;20058;-70
2023/02/28 11:37:18;;;;;;;9.82;6.63;;;7.00;99.90;;;;;;5091298;28;20040;-70
2023/02/28 11:39:45;;;;;;;11.50;6.82;;;6.90;99.90;;;;;;5091736;28;20066;-70
2023/02/28 11:42:45;;;;;;;8.65;6.00;;;6.90;99.90;;;;;;5091554;28;20135;-69
2023/02/28 11:45:33;;;;;;;10.70;6.95;;;6.80;99.90;;;;;;5091298;28;20105;-69
2023/02/28 11:48:17;;;;;;;14.85;6.97;;;6.80;99.90;;;;;;5090877;28;20094;-69
2023/02/28 11:50:51;;;;;;;;;;;6.70;99.90;;;;;;5091872;28;20529;-69
2023/02/28 11:53:35;;;;;;;10.85;6.22;;;6.70;99.90;;;;;;5091928;28;19923;-69
2023/02/28 11:56:25;;;;;;;10.57;6.85;;;6.80;99.90;;;;;;5094874;28;20111;-69
2023/02/28 11:59:14;;;;;;;10.27;6.82;;;6.70;99.90;;;;;;5092705;28;20450;-70
2023/02/28 12:02:16;;;;;;;7.72;6.05;;;6.60;99.90;;;;;;5093473;28;20402;-70
2023/02/28 12:05:10;;;;;;;11.65;7.55;;;6.60;99.90;;;;;;5094695;28;20055;-69
2023/02/28 12:08:01;;;;;;;11.88;7.05;;;6.50;99.90;;;;;;5095122;28;20055;-70
2023/02/28 12:10:41;;;;;;;12.45;6.90;;;6.40;99.90;;;;;;5074850;28;20055;-69
2023/02/28 12:13:22;;;;;;;12.15;7.30;;;6.30;99.90;;;;;;5093388;28;20112;-69
2023/02/28 12:16:15;;;;;;;9.45;6.72;;;6.30;99.90;;;;;;5095057;28;20032;-70
2023/02/28 12:19:13;;;;;;;10.25;6.60;;;6.30;99.90;;;;;;5095025;28;20036;-69
2023/02/28 12:21:47;;;;;;;10.82;6.82;;;6.20;99.90;;;;;;5094497;28;20077;-69
2023/02/28 12:24:26;;;;;;;8.98;6.65;;;6.20;99.90;;;;;;5092727;28;20047;-70
2023/02/28 12:26:53;;;;;;;11.57;6.50;;;6.20;99.90;;;;;;5094865;28;20040;-69
2023/02/28 12:29:42;;;;;;;11.15;6.70;;;6.10;99.90;;;;;;5094609;28;20043;-69
2023/02/28 12:32:35;;;;;;;12.88;7.43;;;6.10;99.90;;;;;;5094672;28;20040;-69
2023/02/28 12:35:14;;;;;;;13.65;7.20;;;6.10;99.90;;;;;;5094452;28;20075;-69
2023/02/28 12:38:17;;;;;;;7.50;5.57;;;6.10;99.90;;;;;;5094466;28;20141;-69
2023/02/28 12:40:52;;;;;;;10.35;5.75;;;6.10;99.90;;;;;;5094429;28;20434;-68
2023/02/28 12:43:19;;;;;;;11.60;6.10;;;6.20;99.90;;;;;;5094198;28;20560;-68
2023/02/28 12:45:56;;;;;;;10.93;6.53;;;6.20;99.90;;;;;;5094196;28;20037;-69
2023/02/28 12:48:52;;;;;;;9.98;6.30;;;6.30;99.90;;;;;;5094468;28;20082;-69
2023/02/28 12:51:19;;;;;;;9.30;6.40;;;6.40;99.90;;;;;;5094350;28;20072;-69
2023/02/28 12:54:00;;;;;;;10.13;6.75;;;6.40;99.90;;;;;;5094001;28;20028;-69
2023/02/28 12:56:38;;;;;;;10.00;7.25;;;6.50;99.90;;;;;;5094302;28;20051;-68
2023/02/28 12:59:34;;;;;;;11.38;6.80;;;6.60;99.90;;;;;;5094188;28;20068;-68
2023/02/28 13:02:33;;;;;;;10.93;6.70;;;6.60;99.90;;;;;;5093854;28;20072;-68
2023/02/28 13:05:18;;;;;;;11.20;6.82;;;6.60;99.90;;;;;;5093677;28;20044;-69
2023/02/28 13:08:04;;;;;;;8.93;6.45;;;6.60;99.90;;;;;;5093933;28;20032;-69
2023/02/28 13:10:45;;;;;;;9.32;6.35;;;6.60;99.90;;;;;;5093873;28;20143;-68
2023/02/28 13:13:17;;;;;;;12.60;6.70;;;6.70;99.90;;;;;;5093670;28;20036;-68